createdAt,value
2022-08-22T00:01:17.184Z,101341.00
2022-08-22T00:02:43.675Z,101371.00
2022-08-22T00:02:48.677Z,101412.00
2022-08-22T00:03:00.471Z,101465.00
2022-08-22T00:03:06.994Z,101344.00
2022-08-22T00:03:10.197Z,101349.00
2022-08-22T00:04:02.466Z,101345.00
2022-08-22T00:06:49.056Z,101341.00
2022-08-22T00:09:36.520Z,101347.00
2022-08-22T00:12:18.512Z,101345.00
2022-08-22T00:14:59.997Z,101348.00
2022-08-22T00:17:45.701Z,101349.00
2022-08-22T00:20:26.402Z,101347.00
2022-08-22T00:23:06.059Z,101360.00
2022-08-22T00:25:47.943Z,101351.00
2022-08-22T00:28:24.091Z,101352.00
2022-08-22T00:31:03.636Z,101356.00
2022-08-22T00:33:43.178Z,101351.00
2022-08-22T00:36:24.358Z,101361.00
2022-08-22T00:39:12.196Z,101361.00
2022-08-22T00:42:38.207Z,101357.00
2022-08-22T00:45:49.378Z,101350.00
2022-08-22T00:49:06.979Z,101351.00
2022-08-22T00:52:27.513Z,101351.00
2022-08-22T00:55:37.713Z,101350.00
2022-08-22T00:58:49.228Z,101356.00
2022-08-22T01:01:31.198Z,101341.00
2022-08-22T01:04:35.809Z,101342.00
2022-08-22T01:07:38.367Z,101342.00
2022-08-22T01:10:40.039Z,101339.00
2022-08-22T01:13:37.500Z,101345.00
2022-08-22T01:16:28.560Z,101338.00
2022-08-22T01:19:26.978Z,101340.00
2022-08-22T01:22:28.600Z,101345.00
2022-08-22T01:25:45.806Z,101337.00
2022-08-22T01:29:28.443Z,101340.00
2022-08-22T01:33:00.095Z,101339.00
2022-08-22T01:36:19.165Z,101340.00
2022-08-22T01:39:29.673Z,101330.00
2022-08-22T01:42:40.238Z,101342.00
2022-08-22T01:45:47.088Z,101339.00
2022-08-22T01:48:23.494Z,101337.00
2022-08-22T01:50:57.632Z,101329.00
2022-08-22T01:53:40.640Z,101332.00
2022-08-22T01:56:16.957Z,101333.00
2022-08-22T01:58:57.344Z,101341.00
2022-08-22T02:01:47.845Z,101329.00
2022-08-22T02:04:38.785Z,101336.00
2022-08-22T02:07:16.020Z,101332.00
2022-08-22T02:10:02.441Z,101330.00
2022-08-22T02:12:45.623Z,101330.00
2022-08-22T02:15:25.627Z,101332.00
2022-08-22T02:18:23.337Z,101331.00
2022-08-22T02:21:06.520Z,101332.00
2022-08-22T02:23:51.228Z,101335.00
2022-08-22T02:26:27.336Z,101336.00
2022-08-22T02:29:02.100Z,101332.00
2022-08-22T02:31:48.816Z,101333.00
2022-08-22T02:34:32.799Z,101331.00
2022-08-22T02:37:11.865Z,101335.00
2022-08-22T02:39:52.820Z,101332.00
2022-08-22T02:42:30.204Z,101331.00
2022-08-22T02:45:13.600Z,101332.00
2022-08-22T02:47:57.012Z,101326.00
2022-08-22T02:50:39.493Z,101328.00
2022-08-22T02:53:18.863Z,101331.00
2022-08-22T02:55:59.020Z,101326.00
2022-08-22T02:58:44.151Z,101319.00
2022-08-22T03:01:34.848Z,101325.00
2022-08-22T03:04:42.078Z,101333.00
2022-08-22T03:07:24.779Z,101338.00
2022-08-22T03:10:12.162Z,101340.00
2022-08-22T03:12:53.634Z,101341.00
2022-08-22T03:15:34.217Z,101344.00
2022-08-22T03:18:17.584Z,101336.00
2022-08-22T03:20:54.396Z,101340.00
2022-08-22T03:23:42.260Z,101343.00
2022-08-22T03:26:19.482Z,101344.00
2022-08-22T03:28:59.840Z,101350.00
2022-08-22T03:31:32.446Z,101345.00
2022-08-22T03:34:27.284Z,101350.00
2022-08-22T03:37:13.643Z,101359.00
2022-08-22T03:39:58.876Z,101357.00
2022-08-22T03:43:10.787Z,101360.00
2022-08-22T03:46:41.794Z,101362.00
2022-08-22T03:49:59.773Z,101360.00
2022-08-22T03:53:18.439Z,101361.00
2022-08-22T03:56:34.104Z,101363.00
2022-08-22T04:00:06.350Z,101357.00
2022-08-22T04:03:13.527Z,101358.00
2022-08-22T04:06:22.016Z,101362.00
2022-08-22T04:09:56.947Z,101357.00
2022-08-22T04:13:05.829Z,101358.00
2022-08-22T04:16:12.692Z,101366.00
2022-08-22T04:19:11.613Z,101360.00
2022-08-22T04:22:09.063Z,101361.00
2022-08-22T04:25:04.700Z,101364.00
2022-08-22T04:27:44.983Z,101370.00
2022-08-22T04:30:25.809Z,101358.00
2022-08-22T04:33:03.476Z,101361.00
2022-08-22T04:35:37.333Z,101358.00
2022-08-22T04:38:18.092Z,101362.00
2022-08-22T04:40:53.790Z,101355.00
2022-08-22T04:43:31.086Z,101364.00
2022-08-22T04:46:11.408Z,101367.00
2022-08-22T04:48:46.650Z,101368.00
2022-08-22T04:51:26.525Z,101369.00
2022-08-22T04:54:19.463Z,101373.00
2022-08-22T04:57:09.144Z,101374.00
2022-08-22T04:59:38.259Z,101375.00
2022-08-22T05:02:12.078Z,101374.00
2022-08-22T05:04:45.444Z,101371.00
2022-08-22T05:07:35.889Z,101372.00
2022-08-22T05:10:13.954Z,101373.00
2022-08-22T05:12:50.186Z,101367.00
2022-08-22T05:15:25.809Z,101367.00
2022-08-22T05:18:01.669Z,101376.00
2022-08-22T05:20:32.140Z,101376.00
2022-08-22T05:23:17.479Z,101378.00
2022-08-22T05:25:57.178Z,101383.00
2022-08-22T05:28:35.324Z,101383.00
2022-08-22T05:31:09.850Z,101381.00
2022-08-22T05:33:44.241Z,101384.00
2022-08-22T05:36:25.425Z,101378.00
2022-08-22T05:39:01.472Z,101394.00
2022-08-22T05:41:38.907Z,101393.00
2022-08-22T05:44:20.113Z,101390.00
2022-08-22T05:47:01.269Z,101397.00
2022-08-22T05:49:40.003Z,101402.00
2022-08-22T05:52:22.651Z,101409.00
2022-08-22T05:54:59.218Z,101411.00
2022-08-22T05:57:35.996Z,101414.00
2022-08-22T06:00:11.294Z,101421.00
2022-08-22T06:03:03.064Z,101426.00
2022-08-22T06:05:41.336Z,101420.00
2022-08-22T06:08:23.504Z,101418.00
2022-08-22T06:10:59.307Z,101423.00
2022-08-22T06:13:41.554Z,101421.00
2022-08-22T06:16:18.166Z,101419.00
2022-08-22T06:18:47.311Z,101415.00
2022-08-22T06:21:27.436Z,101424.00
2022-08-22T06:24:00.377Z,101426.00
2022-08-22T06:26:39.380Z,101437.00
2022-08-22T06:29:10.909Z,101425.00
2022-08-22T06:31:48.177Z,101433.00
2022-08-22T06:34:25.710Z,101437.00
2022-08-22T06:36:59.042Z,101437.00
2022-08-22T06:39:34.222Z,101441.00
2022-08-22T06:42:10.325Z,101442.00
2022-08-22T06:44:48.478Z,101444.00
2022-08-22T06:47:23.424Z,101447.00
2022-08-22T06:50:01.260Z,101452.00
2022-08-22T06:52:50.220Z,101445.00
2022-08-22T06:55:19.817Z,101444.00
2022-08-22T06:57:56.761Z,101450.00
2022-08-22T07:00:28.489Z,101456.00
2022-08-22T07:03:02.934Z,101451.00
2022-08-22T07:05:39.101Z,101452.00
2022-08-22T07:08:13.701Z,101454.00
2022-08-22T07:10:45.157Z,101458.00
2022-08-22T07:13:18.990Z,101460.00
2022-08-22T07:15:56.517Z,101465.00
2022-08-22T07:18:32.116Z,101457.00
2022-08-22T07:21:04.883Z,101460.00
2022-08-22T07:23:40.484Z,101468.00
2022-08-22T07:26:30.683Z,101469.00
2022-08-22T07:29:11.245Z,101468.00
2022-08-22T07:31:57.625Z,101464.00
2022-08-22T07:34:44.791Z,101480.00
2022-08-22T07:37:27.812Z,101468.00
2022-08-22T07:40:08.179Z,101471.00
2022-08-22T07:42:48.192Z,101470.00
2022-08-22T07:45:26.395Z,101466.00
2022-08-22T07:48:25.128Z,101470.00
2022-08-22T07:51:10.120Z,101477.00
2022-08-22T07:53:44.450Z,101476.00
2022-08-22T07:56:20.867Z,101476.00
2022-08-22T07:58:55.667Z,101480.00
2022-08-22T08:01:26.969Z,101487.00
2022-08-22T08:04:02.102Z,101485.00
2022-08-22T08:06:31.986Z,101490.00
2022-08-22T08:09:00.945Z,101485.00
2022-08-22T08:11:42.865Z,101488.00
2022-08-22T08:14:16.756Z,101487.00
2022-08-22T08:17:02.087Z,101491.00
2022-08-22T08:19:36.825Z,101494.00
2022-08-22T08:22:06.472Z,101486.00
2022-08-22T08:24:42.731Z,101494.00
2022-08-22T08:27:34.599Z,101494.00
2022-08-22T08:30:15.399Z,101498.00
2022-08-22T08:32:57.520Z,101491.00
2022-08-22T08:36:03.553Z,101497.00
2022-08-22T08:38:40.713Z,101484.00
2022-08-22T08:41:46.584Z,101488.00
2022-08-22T08:44:59.895Z,101493.00
2022-08-22T08:47:54.936Z,101495.00
2022-08-22T08:50:56.492Z,101486.00
2022-08-22T08:53:53.764Z,101494.00
2022-08-22T08:56:37.138Z,101489.00
2022-08-22T08:59:25.695Z,101493.00
2022-08-22T09:02:33.113Z,101496.00
2022-08-22T09:05:42.107Z,101494.00
2022-08-22T09:08:59.109Z,101501.00
2022-08-22T09:12:15.952Z,101499.00
2022-08-22T09:15:22.283Z,101495.00
2022-08-22T09:18:46.546Z,101507.00
2022-08-22T09:22:14.724Z,101508.00
2022-08-22T09:25:17.364Z,101498.00
2022-08-22T09:27:59.760Z,101507.00
2022-08-22T09:31:21.807Z,101492.00
2022-08-22T09:34:05.349Z,101498.00
2022-08-22T09:36:50.287Z,101501.00
2022-08-22T09:39:29.932Z,101501.00
2022-08-22T09:42:13.027Z,101500.00
2022-08-22T09:44:59.729Z,101497.00
2022-08-22T09:47:35.233Z,101501.00
2022-08-22T09:50:17.663Z,101504.00
2022-08-22T09:53:05.735Z,101504.00
2022-08-22T09:55:50.155Z,101505.00
2022-08-22T09:58:28.802Z,101503.00
2022-08-22T10:01:02.982Z,101500.00
2022-08-22T10:04:35.362Z,101501.00
2022-08-22T10:07:25.597Z,101505.00
2022-08-22T10:10:06.984Z,101503.00
2022-08-22T10:12:52.477Z,101498.00
2022-08-22T10:15:36.781Z,101506.00
2022-08-22T10:18:26.185Z,101506.00
2022-08-22T10:21:13.246Z,101503.00
2022-08-22T10:23:53.788Z,101508.00
2022-08-22T10:26:38.760Z,101507.00
2022-08-22T10:29:47.301Z,101512.00
2022-08-22T10:32:34.557Z,101509.00
2022-08-22T10:35:19.650Z,101504.00
2022-08-22T10:37:57.761Z,101506.00
2022-08-22T10:40:36.106Z,101500.00
2022-08-22T10:43:14.521Z,101517.00
2022-08-22T10:45:48.014Z,101498.00
2022-08-22T10:48:46.296Z,101508.00
2022-08-22T10:51:28.824Z,101507.00
2022-08-22T10:54:38.536Z,101499.00
2022-08-22T10:57:23.729Z,101511.00
2022-08-22T11:00:02.554Z,101515.00
2022-08-22T11:02:44.822Z,101507.00
2022-08-22T11:05:35.712Z,101503.00
2022-08-22T11:08:42.965Z,101498.00
2022-08-22T11:11:32.639Z,101500.00
2022-08-22T11:14:49.269Z,101507.00
2022-08-22T11:17:40.719Z,101507.00
2022-08-22T11:20:29.737Z,101499.00
2022-08-22T11:23:22.672Z,101498.00
2022-08-22T11:26:04.176Z,101494.00
2022-08-22T11:29:29.459Z,101501.00
2022-08-22T11:32:08.414Z,101504.00
2022-08-22T11:34:57.214Z,101506.00
2022-08-22T11:37:51.334Z,101498.00
2022-08-22T11:40:41.693Z,101492.00
2022-08-22T11:43:39.323Z,101492.00
2022-08-22T11:46:23.304Z,101496.00
2022-08-22T11:49:26.895Z,101493.00
2022-08-22T11:52:29.660Z,101496.00
2022-08-22T11:55:19.912Z,101492.00
2022-08-22T11:57:54.149Z,101492.00
2022-08-22T12:00:33.540Z,101498.00
2022-08-22T12:03:43.642Z,101502.00
2022-08-22T12:06:48.451Z,101502.00
2022-08-22T12:09:52.172Z,101501.00
2022-08-22T12:12:51.361Z,101493.00
2022-08-22T12:15:24.691Z,101495.00
2022-08-22T12:18:42.249Z,101504.00
2022-08-22T12:21:47.002Z,101500.00
2022-08-22T12:24:43.612Z,101486.00
2022-08-22T12:27:55.227Z,101499.00
2022-08-22T12:30:38.857Z,101498.00
2022-08-22T12:33:49.647Z,101501.00
2022-08-22T12:37:05.172Z,101506.00
2022-08-22T12:40:17.541Z,101502.00
2022-08-22T12:43:18.840Z,101494.00
2022-08-22T12:46:13.523Z,101501.00
2022-08-22T12:49:10.732Z,101501.00
2022-08-22T12:52:04.562Z,101503.00
2022-08-22T12:55:09.104Z,101503.00
2022-08-22T12:57:50.481Z,101501.00
2022-08-22T13:00:35.668Z,101496.00
2022-08-22T13:03:12.479Z,101496.00
2022-08-22T13:05:46.399Z,101496.00
2022-08-22T13:08:32.725Z,101502.00
2022-08-22T13:11:09.986Z,101503.00
2022-08-22T13:13:57.698Z,101496.00
2022-08-22T13:16:40.372Z,101497.00
2022-08-22T13:19:22.808Z,101504.00
2022-08-22T13:22:00.393Z,101504.00
2022-08-22T13:24:40.237Z,101506.00
2022-08-22T13:27:24.899Z,101503.00
2022-08-22T13:30:00.852Z,101505.00
2022-08-22T13:32:37.673Z,101511.00
2022-08-22T13:35:11.683Z,101517.00
2022-08-22T13:37:50.223Z,101509.00
2022-08-22T13:40:29.252Z,101516.00
2022-08-22T13:43:06.956Z,101511.00
2022-08-22T13:45:38.379Z,101511.00
2022-08-22T13:48:15.668Z,101519.00
2022-08-22T13:51:17.190Z,101512.00
2022-08-22T13:54:02.205Z,101511.00
2022-08-22T13:56:47.220Z,101516.00
2022-08-22T13:59:50.292Z,101524.00
2022-08-22T14:02:43.682Z,101520.00
2022-08-22T14:05:23.295Z,101515.00
2022-08-22T14:08:12.935Z,101522.00
2022-08-22T14:10:54.992Z,101520.00
2022-08-22T14:13:41.798Z,101525.00
2022-08-22T14:16:21.982Z,101525.00
2022-08-22T14:18:55.949Z,101532.00
2022-08-22T14:21:40.653Z,101520.00
2022-08-22T14:24:25.762Z,101525.00
2022-08-22T14:27:05.582Z,101528.00
2022-08-22T14:29:50.223Z,101526.00
2022-08-22T14:32:42.490Z,101522.00
2022-08-22T14:35:29.268Z,101527.00
2022-08-22T14:38:29.839Z,101532.00
2022-08-22T14:41:06.650Z,101530.00
2022-08-22T14:43:52.722Z,101529.00
2022-08-22T14:46:30.535Z,101533.00
2022-08-22T14:49:26.993Z,101537.00
2022-08-22T14:52:09.447Z,101536.00
2022-08-22T14:54:43.463Z,101540.00
2022-08-22T14:57:20.361Z,101542.00
2022-08-22T14:59:53.107Z,101547.00
2022-08-22T15:02:29.487Z,101541.00
2022-08-22T15:05:13.391Z,101546.00
2022-08-22T15:07:42.918Z,101546.00
2022-08-22T15:10:33.298Z,101545.00
2022-08-22T15:13:08.313Z,101547.00
2022-08-22T15:15:52.853Z,101540.00
2022-08-22T15:18:36.721Z,101543.00
2022-08-22T15:21:11.267Z,101540.00
2022-08-22T15:23:46.971Z,101542.00
2022-08-22T15:26:28.100Z,101542.00
2022-08-22T15:29:09.692Z,101549.00
2022-08-22T15:31:43.523Z,101543.00
2022-08-22T15:34:25.196Z,101546.00
2022-08-22T15:37:22.023Z,101538.00
2022-08-22T15:40:12.032Z,101542.00
2022-08-22T15:42:47.091Z,101550.00
2022-08-22T15:45:34.817Z,101554.00
2022-08-22T15:48:25.226Z,101551.00
2022-08-22T15:51:01.279Z,101552.00
2022-08-22T15:53:54.684Z,101551.00
2022-08-22T15:56:30.466Z,101560.00
2022-08-22T15:59:30.845Z,101554.00
2022-08-22T16:02:30.311Z,101555.00
2022-08-22T16:05:26.342Z,101550.00
2022-08-22T16:08:06.444Z,101555.00
2022-08-22T16:10:42.876Z,101559.00
2022-08-22T16:13:39.092Z,101560.00
2022-08-22T16:16:35.294Z,101558.00
2022-08-22T16:19:24.068Z,101566.00
2022-08-22T16:22:14.484Z,101563.00
2022-08-22T16:25:10.188Z,101566.00
2022-08-22T16:28:00.707Z,101566.00
2022-08-22T16:30:39.338Z,101572.00
2022-08-22T16:33:18.023Z,101575.00
2022-08-22T16:36:42.555Z,101574.00
2022-08-22T16:39:33.905Z,101578.00
2022-08-22T16:42:28.605Z,101568.00
2022-08-22T16:45:12.321Z,101573.00
2022-08-22T16:47:52.817Z,101575.00
2022-08-22T16:50:41.065Z,101578.00
2022-08-22T16:53:52.037Z,101583.00
2022-08-22T16:56:32.673Z,101591.00
2022-08-22T16:59:38.204Z,101590.00
2022-08-22T17:02:44.772Z,101594.00
2022-08-22T17:05:31.260Z,101591.00
2022-08-22T17:08:35.565Z,101598.00
2022-08-22T17:11:27.405Z,101602.00
2022-08-22T17:14:18.904Z,101597.00
2022-08-22T17:17:14.863Z,101604.00
2022-08-22T17:20:05.779Z,101608.00
2022-08-22T17:22:49.073Z,101612.00
2022-08-22T17:25:32.700Z,101615.00
2022-08-22T17:28:22.541Z,101613.00
2022-08-22T17:31:05.807Z,101623.00
2022-08-22T17:34:01.860Z,101606.00
2022-08-22T17:36:47.796Z,101617.00
2022-08-22T17:39:36.760Z,101622.00
2022-08-22T17:42:47.826Z,101630.00
2022-08-22T17:45:29.929Z,101628.00
2022-08-22T17:48:11.590Z,101633.00
2022-08-22T17:50:50.000Z,101634.00
2022-08-22T17:53:37.286Z,101644.00
2022-08-22T17:56:22.448Z,101642.00
2022-08-22T17:59:08.536Z,101647.00
2022-08-22T18:01:51.061Z,101653.00
2022-08-22T18:04:30.542Z,101658.00
2022-08-22T18:07:42.140Z,101658.00
2022-08-22T18:10:23.539Z,101667.00
2022-08-22T18:13:07.187Z,101662.00
2022-08-22T18:15:51.422Z,101671.00
2022-08-22T18:18:32.552Z,101680.00
2022-08-22T18:21:11.494Z,101672.00
2022-08-22T18:23:49.777Z,101672.00
2022-08-22T18:26:27.856Z,101676.00
2022-08-22T18:29:07.052Z,101673.00
2022-08-22T18:31:53.337Z,101671.00
2022-08-22T18:34:41.148Z,101672.00
2022-08-22T18:37:24.642Z,101671.00
2022-08-22T18:40:12.302Z,101674.00
2022-08-22T18:42:50.153Z,101676.00
2022-08-22T18:45:44.304Z,101675.00
2022-08-22T18:48:27.550Z,101686.00
2022-08-22T18:51:24.973Z,101681.00
2022-08-22T18:54:01.313Z,101684.00
2022-08-22T18:56:51.275Z,101688.00
2022-08-22T18:59:57.194Z,101696.00
2022-08-22T19:03:18.388Z,101698.00
2022-08-22T19:06:28.126Z,101695.00
2022-08-22T19:09:48.783Z,101703.00
2022-08-22T19:12:52.695Z,101701.00
2022-08-22T19:15:39.541Z,101702.00
2022-08-22T19:18:42.534Z,101703.00
2022-08-22T19:21:42.582Z,101702.00
2022-08-22T19:24:36.992Z,101709.00
2022-08-22T19:27:31.131Z,101704.00
2022-08-22T19:30:07.571Z,101698.00
2022-08-22T19:33:04.165Z,101706.00
2022-08-22T19:36:02.134Z,101699.00
2022-08-22T19:39:09.019Z,101702.00
2022-08-22T19:41:58.704Z,101699.00
2022-08-22T19:44:46.721Z,101700.00
2022-08-22T19:47:31.725Z,101693.00
2022-08-22T19:50:08.874Z,101689.00
2022-08-22T19:53:12.134Z,101700.00
2022-08-22T19:56:12.954Z,101696.00
2022-08-22T19:59:04.465Z,101702.00
2022-08-22T20:02:09.132Z,101706.00
2022-08-22T20:05:22.735Z,101704.00
2022-08-22T20:08:18.835Z,101702.00
2022-08-22T20:11:10.195Z,101713.00
2022-08-22T20:13:40.477Z,101713.00
2022-08-22T20:16:21.507Z,101716.00
2022-08-22T20:19:08.800Z,101721.00
2022-08-22T20:21:55.675Z,101716.00
2022-08-22T20:24:36.595Z,101721.00
2022-08-22T20:27:18.168Z,101716.00
2022-08-22T20:30:02.297Z,101718.00
2022-08-22T20:32:42.755Z,101722.00
2022-08-22T20:35:23.934Z,101722.00
2022-08-22T20:38:06.759Z,101727.00
2022-08-22T20:40:55.403Z,101725.00
2022-08-22T20:43:35.553Z,101730.00
2022-08-22T20:46:24.997Z,101733.00
2022-08-22T20:48:57.292Z,101743.00
2022-08-22T20:51:31.611Z,101735.00
2022-08-22T20:54:10.087Z,101745.00
2022-08-22T20:56:52.845Z,101739.00
2022-08-22T20:59:37.232Z,101747.00
2022-08-22T21:02:22.852Z,101745.00
2022-08-22T21:05:00.239Z,101744.00
2022-08-22T21:07:32.783Z,101745.00
2022-08-22T21:10:24.206Z,101746.00
2022-08-22T21:13:12.924Z,101738.00
2022-08-22T21:15:48.899Z,101741.00
2022-08-22T21:18:32.576Z,101746.00
2022-08-22T21:21:17.336Z,101749.00
2022-08-22T21:23:50.335Z,101746.00
2022-08-22T21:26:25.524Z,101752.00
2022-08-22T21:29:02.039Z,101745.00
2022-08-22T21:31:36.559Z,101749.00
2022-08-22T21:34:05.961Z,101747.00
2022-08-22T21:36:39.975Z,101743.00
2022-08-22T21:39:20.516Z,101746.00
2022-08-22T21:41:53.252Z,101748.00
2022-08-22T21:44:33.307Z,101762.00
2022-08-22T21:47:31.234Z,101765.00
2022-08-22T21:50:18.741Z,101747.00
2022-08-22T21:53:11.952Z,101751.00
2022-08-22T21:55:44.557Z,101756.00
2022-08-22T21:58:35.892Z,101758.00
2022-08-22T22:01:31.338Z,101757.00
2022-08-22T22:04:01.737Z,101764.00
2022-08-22T22:06:31.750Z,101766.00
2022-08-22T22:09:00.446Z,101771.00
2022-08-22T22:11:29.430Z,101770.00
2022-08-22T22:13:58.168Z,101773.00
2022-08-22T22:16:30.002Z,101780.00
2022-08-22T22:18:58.614Z,101779.00
2022-08-22T22:21:28.970Z,101780.00
2022-08-22T22:23:58.581Z,101781.00
2022-08-22T22:26:28.787Z,101777.00
2022-08-22T22:28:59.259Z,101771.00
2022-08-22T22:31:28.375Z,101775.00
2022-08-22T22:33:57.073Z,101779.00
2022-08-22T22:36:28.828Z,101776.00
2022-08-22T22:38:57.797Z,101783.00
2022-08-22T22:41:26.633Z,101791.00
2022-08-22T22:43:56.558Z,101791.00
2022-08-22T22:46:27.304Z,101799.00
2022-08-22T22:48:57.544Z,101797.00
2022-08-22T22:51:26.343Z,101785.00
2022-08-22T22:53:57.951Z,101790.00
2022-08-22T22:56:26.829Z,101802.00
2022-08-22T22:58:59.229Z,101788.00
2022-08-22T23:01:35.009Z,101793.00
2022-08-22T23:04:05.997Z,101793.00
2022-08-22T23:06:36.587Z,101794.00
2022-08-22T23:09:06.717Z,101787.00
2022-08-22T23:11:36.735Z,101792.00
2022-08-22T23:14:05.495Z,101802.00
2022-08-22T23:16:37.337Z,101802.00
2022-08-22T23:19:10.596Z,101801.00
2022-08-22T23:21:39.869Z,101805.00
2022-08-22T23:24:11.306Z,101803.00
2022-08-22T23:26:40.717Z,101808.00
2022-08-22T23:29:09.850Z,101817.00
2022-08-22T23:31:42.135Z,101812.00
2022-08-22T23:34:14.386Z,101815.00
2022-08-22T23:36:46.815Z,101809.00
2022-08-22T23:39:18.883Z,101816.00
2022-08-22T23:41:48.007Z,101818.00
2022-08-22T23:44:22.210Z,101817.00
2022-08-22T23:46:52.107Z,101821.00
2022-08-22T23:49:21.161Z,101822.00
2022-08-22T23:51:50.828Z,101821.00
2022-08-22T23:54:22.575Z,101823.00
2022-08-22T23:56:54.791Z,101823.00
2022-08-22T23:59:30.504Z,101830.00
